Terminal Aerodrome Forecast
Issued by NWS

Home | Current Version | Previous Version | Graphics & Text | Print | Product List | Glossary On
Versions: 1 2 3 4 5 6 7 8 9 10 11 12 13 14 15 16 17 18 19 20
000
FTUS43 KGRB 301727
TAFRHI
TAF
KRHI 301727Z 3018/3118 01010G15KT P6SM SCT025 SCT100
      TEMPO 3018/3021 BKN025
     FM302100 02007KT P6SM SCT035
     FM310100 05003KT P6SM SKC=

USA.gov is the U.S. government's official web portal to all federal, state and local government web resources and services.